createdAt,value
2018-01-02T00:00:37.601Z,99633
2018-01-02T00:03:06.743Z,99639
2018-01-02T00:05:36.752Z,99641
2018-01-02T00:08:05.888Z,99642
2018-01-02T00:10:35.783Z,99647
2018-01-02T00:13:04.963Z,99652
2018-01-02T00:15:34.145Z,99650
2018-01-02T00:18:04.046Z,99647
2018-01-02T00:20:33.245Z,99655
2018-01-02T00:23:03.207Z,99654
2018-01-02T00:25:33.106Z,99657
2018-01-02T00:28:02.946Z,99658
2018-01-02T00:30:32.065Z,99659
2018-01-02T00:33:01.203Z,99660
2018-01-02T00:35:30.666Z,99659
2018-01-02T00:37:59.869Z,99666
2018-01-02T00:40:29.510Z,99664
2018-01-02T00:42:58.725Z,99667
2018-01-02T00:45:27.878Z,99670
2018-01-02T00:47:57.066Z,99679
2018-01-02T00:50:26.340Z,99683
2018-01-02T00:52:55.573Z,99688
2018-01-02T00:55:24.762Z,99690
2018-01-02T00:57:53.965Z,99693
2018-01-02T01:00:23.250Z,99692
2018-01-02T01:02:52.431Z,99696
2018-01-02T01:05:22.360Z,99694
2018-01-02T01:07:52.530Z,99693
2018-01-02T01:10:21.706Z,99692
2018-01-02T01:12:50.930Z,99690
2018-01-02T01:15:20.076Z,99695
2018-01-02T01:17:49.194Z,99692
2018-01-02T01:20:18.337Z,99697
2018-01-02T01:22:48.591Z,99698
2018-01-02T01:25:17.722Z,99702
2018-01-02T01:27:46.883Z,99705
2018-01-02T01:30:15.973Z,99710
2018-01-02T01:32:45.101Z,99713
2018-01-02T01:35:15.065Z,99716
2018-01-02T01:37:44.164Z,99714
2018-01-02T01:40:13.279Z,99717
2018-01-02T01:42:42.418Z,99728
2018-01-02T01:45:11.546Z,99727
2018-01-02T01:47:40.697Z,99729
2018-01-02T01:50:10.520Z,99726
2018-01-02T01:52:39.624Z,99729
2018-01-02T01:55:08.815Z,99728
2018-01-02T01:57:38.220Z,99732
2018-01-02T02:00:07.402Z,99731
2018-01-02T02:02:36.481Z,99736
2018-01-02T02:05:05.651Z,99734
2018-01-02T02:07:34.772Z,99742
2018-01-02T02:10:04.657Z,99740
2018-01-02T02:12:33.814Z,99747
2018-01-02T02:15:03.682Z,99747
2018-01-02T02:17:32.819Z,99744
2018-01-02T02:20:02.835Z,99743
2018-01-02T02:22:31.930Z,99742
2018-01-02T02:25:01.038Z,99741
2018-01-02T02:27:30.192Z,99739
2018-01-02T02:29:59.287Z,99744
2018-01-02T02:32:28.441Z,99744
2018-01-02T02:34:57.758Z,99752
2018-01-02T02:37:26.948Z,99751
2018-01-02T02:39:56.338Z,99748
2018-01-02T02:42:25.629Z,99750
2018-01-02T02:44:54.750Z,99751
2018-01-02T02:47:24.029Z,99744
2018-01-02T02:49:53.634Z,99746
2018-01-02T02:52:22.832Z,99749
2018-01-02T02:54:52.760Z,99751
2018-01-02T02:57:22.478Z,99753
2018-01-02T02:59:51.654Z,99757
2018-01-02T03:02:20.850Z,99753
2018-01-02T03:04:51.439Z,99759
2018-01-02T03:07:21.405Z,99754
2018-01-02T03:09:50.617Z,99756
2018-01-02T03:12:19.810Z,99759
2018-01-02T03:14:49.490Z,99757
2018-01-02T03:17:18.613Z,99756
2018-01-02T03:19:47.741Z,99757
2018-01-02T03:22:17.623Z,99759
2018-01-02T03:24:46.734Z,99768
2018-01-02T03:27:16.051Z,99772
2018-01-02T03:29:45.145Z,99779
2018-01-02T03:32:14.266Z,99785
2018-01-02T03:34:44.225Z,99791
2018-01-02T03:37:14.998Z,99791
2018-01-02T03:39:44.113Z,99791
2018-01-02T03:42:13.333Z,99796
2018-01-02T03:44:42.429Z,99795
2018-01-02T03:47:11.530Z,99799
2018-01-02T03:49:41.545Z,99799
2018-01-02T03:52:11.417Z,99798
2018-01-02T03:54:40.623Z,99800
2018-01-02T03:57:09.905Z,99800
2018-01-02T03:59:39.018Z,99803
2018-01-02T04:02:08.130Z,99809
2018-01-02T04:04:37.784Z,99808
2018-01-02T04:07:06.958Z,99811
2018-01-02T04:09:36.067Z,99813
2018-01-02T04:12:05.229Z,99815
2018-01-02T04:14:34.337Z,99822
2018-01-02T04:17:03.449Z,99821
2018-01-02T04:19:32.611Z,99828
2018-01-02T04:22:01.708Z,99825
2018-01-02T04:24:31.758Z,99827
2018-01-02T04:27:01.682Z,99828
2018-01-02T04:29:30.797Z,99833
2018-01-02T04:32:00.121Z,99836
2018-01-02T04:34:29.672Z,99837
2018-01-02T04:36:58.934Z,99839
2018-01-02T04:39:28.060Z,99839
2018-01-02T04:41:57.227Z,99844
2018-01-02T04:44:27.202Z,99849
2018-01-02T04:46:56.362Z,99848
2018-01-02T04:49:27.154Z,99855
2018-01-02T04:51:56.296Z,99853
2018-01-02T04:54:25.426Z,99859
2018-01-02T04:56:55.797Z,99856
2018-01-02T04:59:24.954Z,99863
2018-01-02T05:01:54.110Z,99868
2018-01-02T05:04:23.321Z,99869
2018-01-02T05:06:52.498Z,99874
2018-01-02T05:09:22.432Z,99869
2018-01-02T05:11:52.408Z,99876
2018-01-02T05:14:21.545Z,99876
2018-01-02T05:16:50.705Z,99880
2018-01-02T05:19:20.711Z,99882
2018-01-02T05:21:49.867Z,99885
2018-01-02T05:24:19.429Z,99886
2018-01-02T05:26:48.674Z,99886
2018-01-02T05:29:17.801Z,99885
2018-01-02T05:31:46.897Z,99893
2018-01-02T05:34:16.119Z,99893
2018-01-02T05:36:45.221Z,99900
2018-01-02T05:39:14.318Z,99904
2018-01-02T05:41:43.467Z,99908
2018-01-02T05:44:12.581Z,99915
2018-01-02T05:46:41.698Z,99916
2018-01-02T05:49:11.001Z,99915
2018-01-02T05:51:40.099Z,99914
2018-01-02T05:54:09.240Z,99917
2018-01-02T05:56:38.922Z,99913
2018-01-02T05:59:08.058Z,99919
2018-01-02T06:01:37.168Z,99921
2018-01-02T06:04:06.673Z,99927
2018-01-02T06:06:35.789Z,99926
2018-01-02T06:09:06.533Z,99926
2018-01-02T06:11:35.679Z,99929
2018-01-02T06:14:05.554Z,99928
2018-01-02T06:16:34.680Z,99926
2018-01-02T06:19:04.038Z,99937
2018-01-02T06:21:33.138Z,99943
2018-01-02T06:24:03.052Z,99947
2018-01-02T06:26:32.406Z,99950
2018-01-02T06:29:01.510Z,99956
2018-01-02T06:31:30.602Z,99951
2018-01-02T06:34:00.543Z,99957
2018-01-02T06:36:30.454Z,99959
2018-01-02T06:39:00.382Z,99958
2018-01-02T06:41:30.326Z,99959
2018-01-02T06:43:59.443Z,99958
2018-01-02T06:46:28.600Z,99966
2018-01-02T06:48:58.225Z,99963
2018-01-02T06:51:27.441Z,99966
2018-01-02T06:53:56.579Z,99968
2018-01-02T06:56:25.773Z,99970
2018-01-02T06:58:54.922Z,99984
2018-01-02T07:01:24.048Z,99984
2018-01-02T07:03:53.757Z,99984
2018-01-02T07:06:23.166Z,99986
2018-01-02T07:08:52.340Z,99995
2018-01-02T07:11:22.961Z,100003
2018-01-02T07:13:52.177Z,100001
2018-01-02T07:16:22.271Z,100008
2018-01-02T07:18:51.803Z,100002
2018-01-02T07:21:20.996Z,100008
2018-01-02T07:23:50.136Z,100012
2018-01-02T07:26:20.150Z,100021
2018-01-02T07:28:49.555Z,100022
2018-01-02T07:31:19.742Z,100024
2018-01-02T07:33:50.001Z,100034
2018-01-02T07:36:19.276Z,100035
2018-01-02T07:38:48.423Z,100038
2018-01-02T07:41:17.676Z,100039
2018-01-02T07:43:46.889Z,100045
2018-01-02T07:46:16.788Z,100056
2018-01-02T07:48:46.321Z,100057
2018-01-02T07:51:15.437Z,100063
2018-01-02T07:53:44.557Z,100062
2018-01-02T07:56:13.752Z,100065
2018-01-02T07:58:42.870Z,100058
2018-01-02T08:01:11.987Z,100067
2018-01-02T08:03:41.834Z,100068
2018-01-02T08:06:11.756Z,100079
2018-01-02T08:08:40.882Z,100081
2018-01-02T08:11:11.570Z,100078
2018-01-02T08:13:40.677Z,100081
2018-01-02T08:16:09.778Z,100089
2018-01-02T08:18:38.949Z,100088
2018-01-02T08:21:08.154Z,100085
2018-01-02T08:23:37.244Z,100088
2018-01-02T08:26:06.728Z,100084
2018-01-02T08:28:35.845Z,100095
2018-01-02T08:31:04.961Z,100103
2018-01-02T08:33:34.137Z,100107
2018-01-02T08:36:03.251Z,100113
2018-01-02T08:38:32.370Z,100114
2018-01-02T08:41:02.161Z,100115
2018-01-02T08:43:32.031Z,100117
2018-01-02T08:46:01.169Z,100122
2018-01-02T08:48:30.301Z,100128
2018-01-02T08:51:00.937Z,100134
2018-01-02T08:53:30.057Z,100135
2018-01-02T08:56:01.529Z,100136
2018-01-02T08:58:31.436Z,100143
2018-01-02T09:01:01.416Z,100146
2018-01-02T09:03:30.587Z,100152
2018-01-02T09:05:59.714Z,100157
2018-01-02T09:08:29.628Z,100158
2018-01-02T09:10:59.557Z,100161
2018-01-02T09:13:34.168Z,100164
2018-01-02T09:16:04.156Z,100171
2018-01-02T09:18:33.278Z,100171
2018-01-02T09:21:02.396Z,100186
2018-01-02T09:23:31.669Z,100183
2018-01-02T09:26:00.869Z,100196
2018-01-02T09:28:30.776Z,100193
2018-01-02T09:30:59.981Z,100189
2018-01-02T09:33:29.120Z,100193
2018-01-02T09:35:59.042Z,100197
2018-01-02T09:38:28.530Z,100202
2018-01-02T09:40:57.696Z,100205
2018-01-02T09:43:26.988Z,100203
2018-01-02T09:45:56.287Z,100201
2018-01-02T09:48:25.454Z,100212
2018-01-02T09:50:54.709Z,100214
2018-01-02T09:53:24.001Z,100213
2018-01-02T09:55:53.392Z,100220
2018-01-02T09:58:22.574Z,100218
2018-01-02T10:00:52.911Z,100221
2018-01-02T10:03:22.213Z,100223
2018-01-02T10:05:51.494Z,100222
2018-01-02T10:08:22.289Z,100224
2018-01-02T10:10:52.639Z,100225
2018-01-02T10:13:22.233Z,100227
2018-01-02T10:15:51.473Z,100225
2018-01-02T10:18:20.956Z,100235
2018-01-02T10:20:50.944Z,100242
2018-01-02T10:23:20.512Z,100241
2018-01-02T10:25:49.757Z,100238
2018-01-02T10:28:18.921Z,100242
2018-01-02T10:30:48.196Z,100241
2018-01-02T10:33:17.333Z,100244
2018-01-02T10:35:48.177Z,100238
2018-01-02T10:38:18.591Z,100242
2018-01-02T10:40:47.699Z,100246
2018-01-02T10:43:16.828Z,100249
2018-01-02T10:45:46.969Z,100254
2018-01-02T10:48:16.078Z,100248
2018-01-02T10:50:45.174Z,100253
2018-01-02T10:53:14.346Z,100254
2018-01-02T10:55:43.481Z,100255
2018-01-02T10:58:12.601Z,100257
2018-01-02T11:00:48.257Z,100256
2018-01-02T11:03:17.489Z,100252
2018-01-02T11:05:46.586Z,100249
2018-01-02T11:08:16.034Z,100244
2018-01-02T11:10:45.165Z,100251
2018-01-02T11:13:14.286Z,100248
2018-01-02T11:15:43.530Z,100246
2018-01-02T11:18:12.657Z,100256
2018-01-02T11:20:41.795Z,100254
2018-01-02T11:23:11.937Z,100256
2018-01-02T11:25:41.039Z,100254
2018-01-02T11:28:10.925Z,100261
2018-01-02T11:30:40.405Z,100264
2018-01-02T11:33:09.613Z,100266
2018-01-02T11:35:38.760Z,100266
2018-01-02T11:38:08.237Z,100266
2018-01-02T11:40:37.481Z,100276
2018-01-02T11:43:06.688Z,100268
2018-01-02T11:45:35.872Z,100276
2018-01-02T11:48:04.991Z,100271
2018-01-02T11:50:34.150Z,100265
2018-01-02T11:53:03.736Z,100268
2018-01-02T11:55:32.909Z,100279
2018-01-02T11:58:02.968Z,100272
2018-01-02T12:00:32.333Z,100278
2018-01-02T12:03:01.498Z,100283
2018-01-02T12:05:30.642Z,100288
2018-01-02T12:08:01.452Z,100292
2018-01-02T12:10:30.743Z,100294
2018-01-02T12:13:00.753Z,100295
2018-01-02T12:15:30.140Z,100299
2018-01-02T12:17:59.316Z,100308
2018-01-02T12:20:28.648Z,100307
2018-01-02T12:22:57.883Z,100309
2018-01-02T12:25:27.167Z,100317
2018-01-02T12:27:56.396Z,100312
2018-01-02T12:30:34.191Z,100318
2018-01-02T12:33:05.558Z,100317
2018-01-02T12:35:35.545Z,100324
2018-01-02T12:38:04.673Z,100316
2018-01-02T12:40:34.855Z,100327
2018-01-02T12:43:04.293Z,100321
2018-01-02T12:45:33.449Z,100321
2018-01-02T12:48:04.107Z,100329
2018-01-02T12:50:33.330Z,100327
2018-01-02T12:53:02.496Z,100325
2018-01-02T12:55:32.015Z,100327
2018-01-02T12:58:02.110Z,100324
2018-01-02T13:00:31.303Z,100324
2018-01-02T13:03:00.754Z,100320
2018-01-02T13:05:30.518Z,100319
2018-01-02T13:07:59.834Z,100313
2018-01-02T13:10:29.123Z,100312
2018-01-02T13:12:58.702Z,100314
2018-01-02T13:15:28.731Z,100321
2018-01-02T13:17:58.725Z,100326
2018-01-02T13:20:28.330Z,100323
2018-01-02T13:22:57.625Z,100324
2018-01-02T13:25:27.012Z,100323
2018-01-02T13:27:56.711Z,100329
2018-01-02T13:30:26.823Z,100324
2018-01-02T13:32:58.030Z,100323
2018-01-02T13:35:28.917Z,100326
2018-01-02T13:37:58.354Z,100332
2018-01-02T13:40:27.893Z,100331
2018-01-02T13:42:58.744Z,100331
2018-01-02T13:45:28.783Z,100329
2018-01-02T13:47:58.030Z,100333
2018-01-02T13:50:28.058Z,100334
2018-01-02T13:52:57.408Z,100332
2018-01-02T13:55:27.006Z,100332
2018-01-02T13:57:57.362Z,100330
2018-01-02T14:00:26.523Z,100333
2018-01-02T14:02:55.767Z,100334
2018-01-02T14:05:25.783Z,100331
2018-01-02T14:07:55.082Z,100332
2018-01-02T14:10:24.431Z,100335
2018-01-02T14:12:53.731Z,100333
2018-01-02T14:15:23.011Z,100328
2018-01-02T14:17:53.069Z,100335
2018-01-02T14:20:22.366Z,100331
2018-01-02T14:22:51.850Z,100329
2018-01-02T14:25:21.250Z,100326
2018-01-02T14:27:51.442Z,100324
2018-01-02T14:30:20.641Z,100324
2018-01-02T14:32:50.608Z,100327
2018-01-02T14:35:21.470Z,100330
2018-01-02T14:37:50.643Z,100331
2018-01-02T14:40:19.841Z,100336
2018-01-02T14:42:49.758Z,100336
2018-01-02T14:45:18.953Z,100335
2018-01-02T14:47:52.684Z,100336
2018-01-02T14:50:22.007Z,100339
2018-01-02T14:52:51.372Z,100342
2018-01-02T14:55:20.664Z,100345
2018-01-02T14:57:49.927Z,100339
2018-01-02T15:00:20.005Z,100336
2018-01-02T15:02:49.918Z,100341
2018-01-02T15:05:19.069Z,100342
2018-01-02T15:07:48.250Z,100345
2018-01-02T15:10:17.488Z,100341
2018-01-02T15:12:46.606Z,100337
2018-01-02T15:15:15.767Z,100338
2018-01-02T15:17:45.242Z,100343
2018-01-02T15:20:14.422Z,100335
2018-01-02T15:22:43.546Z,100335
2018-01-02T15:25:13.833Z,100348
2018-01-02T15:27:42.957Z,100366
2018-01-02T15:30:12.120Z,100360
2018-01-02T15:32:46.208Z,100363
2018-01-02T15:35:16.275Z,100358
2018-01-02T15:37:48.471Z,100362
2018-01-02T15:40:17.714Z,100360
2018-01-02T15:42:46.918Z,100355
2018-01-02T15:45:16.065Z,100351
2018-01-02T15:47:45.220Z,100354
2018-01-02T15:50:14.569Z,100352
2018-01-02T15:52:45.490Z,100355
2018-01-02T15:55:15.214Z,100356
2018-01-02T15:57:44.346Z,100356
2018-01-02T16:00:14.618Z,100353
2018-01-02T16:02:44.549Z,100362
2018-01-02T16:05:27.353Z,100367
2018-01-02T16:07:57.888Z,100361
2018-01-02T16:10:42.114Z,100354
2018-01-02T16:13:18.014Z,100351
2018-01-02T16:15:49.409Z,100351
2018-01-02T16:18:18.582Z,100359
2018-01-02T16:20:48.841Z,100372
2018-01-02T16:23:18.010Z,100369
2018-01-02T16:25:54.003Z,100360
2018-01-02T16:28:23.812Z,100361
2018-01-02T16:30:53.133Z,100363
2018-01-02T16:33:23.278Z,100364
2018-01-02T16:35:54.167Z,100361
2018-01-02T16:38:23.362Z,100363
2018-01-02T16:40:52.885Z,100365
2018-01-02T16:43:22.763Z,100373
2018-01-02T16:45:53.063Z,100368
2018-01-02T16:48:22.313Z,100374
2018-01-02T16:50:51.707Z,100368
2018-01-02T16:53:20.886Z,100367
2018-01-02T16:55:50.314Z,100373
2018-01-02T16:58:20.225Z,100369
2018-01-02T17:00:50.959Z,100370
2018-01-02T17:03:20.236Z,100368
2018-01-02T17:05:50.300Z,100362
2018-01-02T17:08:19.870Z,100364
2018-01-02T17:10:49.015Z,100357
2018-01-02T17:13:18.309Z,100359
2018-01-02T17:15:47.491Z,100361
2018-01-02T17:18:16.663Z,100352
2018-01-02T17:20:46.620Z,100344
2018-01-02T17:23:15.816Z,100354
2018-01-02T17:25:45.050Z,100348
2018-01-02T17:28:14.217Z,100345
2018-01-02T17:30:43.342Z,100348
2018-01-02T17:33:13.289Z,100347
2018-01-02T17:35:43.394Z,100344
2018-01-02T17:38:13.429Z,100337
2018-01-02T17:40:42.595Z,100334
2018-01-02T17:43:11.928Z,100332
2018-01-02T17:45:41.041Z,100328
2018-01-02T17:48:10.208Z,100331
2018-01-02T17:50:39.480Z,100323
2018-01-02T17:53:08.721Z,100321
2018-01-02T17:55:39.623Z,100315
2018-01-02T17:58:09.694Z,100315
2018-01-02T18:00:39.604Z,100315
2018-01-02T18:03:08.797Z,100306
2018-01-02T18:05:38.590Z,100304
2018-01-02T18:08:07.774Z,100298
2018-01-02T18:10:37.684Z,100301
2018-01-02T18:13:06.923Z,100293
2018-01-02T18:15:36.051Z,100286
2018-01-02T18:18:05.223Z,100285
2018-01-02T18:20:35.120Z,100289
2018-01-02T18:23:04.367Z,100284
2018-01-02T18:25:34.942Z,100285
2018-01-02T18:28:04.221Z,100277
2018-01-02T18:30:33.409Z,100275
2018-01-02T18:33:02.681Z,100271
2018-01-02T18:35:31.968Z,100257
2018-01-02T18:38:03.161Z,100258
2018-01-02T18:40:36.006Z,100247
2018-01-02T18:43:05.302Z,100248
2018-01-02T18:45:34.755Z,100238
2018-01-02T18:48:07.632Z,100241
2018-01-02T18:50:37.228Z,100230
2018-01-02T18:53:06.437Z,100225
2018-01-02T18:55:37.900Z,100229
2018-01-02T18:58:08.081Z,100227
2018-01-02T19:00:39.958Z,100228
2018-01-02T19:03:11.205Z,100236
2018-01-02T19:05:41.764Z,100230
2018-01-02T19:08:15.396Z,100233
2018-01-02T19:10:47.114Z,100234
2018-01-02T19:13:19.417Z,100247
2018-01-02T19:15:51.212Z,100243
2018-01-02T19:18:23.957Z,100242
2018-01-02T19:20:55.598Z,100240
2018-01-02T19:23:25.586Z,100238
2018-01-02T19:25:55.799Z,100242
2018-01-02T19:28:49.101Z,100236
2018-01-02T19:31:22.120Z,100234
2018-01-02T19:33:51.787Z,100230
2018-01-02T19:36:21.101Z,100225
2018-01-02T19:38:51.037Z,100213
2018-01-02T19:41:20.882Z,100209
2018-01-02T19:43:50.542Z,100202
2018-01-02T19:46:22.679Z,100195
2018-01-02T19:48:52.299Z,100192
2018-01-02T19:51:22.422Z,100192
2018-01-02T19:53:52.765Z,100193
2018-01-02T19:56:22.049Z,100194
2018-01-02T19:58:51.356Z,100188
2018-01-02T20:01:24.665Z,100176
2018-01-02T20:03:53.965Z,100171
2018-01-02T20:06:25.180Z,100172
2018-01-02T20:08:54.484Z,100170
2018-01-02T20:11:24.536Z,100172
2018-01-02T20:13:53.975Z,100173
2018-01-02T20:16:23.236Z,100162
2018-01-02T20:18:52.517Z,100161
2018-01-02T20:21:22.457Z,100150
2018-01-02T20:23:51.850Z,100146
2018-01-02T20:26:22.417Z,100134
2018-01-02T20:28:51.648Z,100127
2018-01-02T20:31:21.687Z,100122
2018-01-02T20:33:51.101Z,100118
2018-01-02T20:36:21.253Z,100127
2018-01-02T20:38:52.737Z,100121
2018-01-02T20:41:25.009Z,100118
2018-01-02T20:43:55.157Z,100095
2018-01-02T20:46:25.850Z,100093
2018-01-02T20:48:56.596Z,100088
2018-01-02T20:51:28.999Z,100079
2018-01-02T20:53:58.913Z,100080
2018-01-02T20:56:29.843Z,100082
2018-01-02T20:59:00.057Z,100070
2018-01-02T21:01:29.285Z,100068
2018-01-02T21:03:58.679Z,100068
2018-01-02T21:06:28.335Z,100067
2018-01-02T21:08:57.651Z,100058
2018-01-02T21:11:26.954Z,100059
2018-01-02T21:13:57.542Z,100054
2018-01-02T21:16:26.707Z,100044
2018-01-02T21:18:55.960Z,100041
2018-01-02T21:21:25.226Z,100027
2018-01-02T21:23:54.496Z,100025
2018-01-02T21:26:23.772Z,100016
2018-01-02T21:28:53.378Z,100001
2018-01-02T21:31:22.698Z,99991
2018-01-02T21:33:52.914Z,99978
2018-01-02T21:36:22.169Z,99972
2018-01-02T21:38:52.221Z,99970
2018-01-02T21:41:21.997Z,99959
2018-01-02T21:43:51.563Z,99953
2018-01-02T21:46:21.107Z,99941
2018-01-02T21:48:50.302Z,99932
2018-01-02T21:51:19.572Z,99921
2018-01-02T21:53:48.903Z,99914
2018-01-02T21:56:18.422Z,99913
2018-01-02T21:58:47.628Z,99908
2018-01-02T22:01:16.757Z,99908
2018-01-02T22:03:45.998Z,99903
2018-01-02T22:06:15.152Z,99900
2018-01-02T22:08:44.372Z,99890
2018-01-02T22:11:13.521Z,99878
2018-01-02T22:13:42.733Z,99863
2018-01-02T22:16:11.913Z,99840
2018-01-02T22:18:41.092Z,99833
2018-01-02T22:21:10.914Z,99832
2018-01-02T22:23:40.128Z,99829
2018-01-02T22:26:10.061Z,99814
2018-01-02T22:28:41.030Z,99813
2018-01-02T22:31:10.302Z,99809
2018-01-02T22:33:40.638Z,99807
2018-01-02T22:36:10.513Z,99799
2018-01-02T22:38:39.681Z,99790
2018-01-02T22:41:08.837Z,99791
2018-01-02T22:43:38.402Z,99782
2018-01-02T22:46:08.026Z,99780
2018-01-02T22:48:37.372Z,99773
2018-01-02T22:51:06.687Z,99762
2018-01-02T22:53:36.161Z,99762
2018-01-02T22:56:05.471Z,99750
2018-01-02T22:58:35.092Z,99735
2018-01-02T23:01:04.631Z,99728
2018-01-02T23:03:33.832Z,99719
2018-01-02T23:06:03.093Z,99705
2018-01-02T23:08:33.206Z,99684
2018-01-02T23:11:03.141Z,99678
2018-01-02T23:13:37.427Z,99667
2018-01-02T23:16:07.078Z,99659
2018-01-02T23:18:36.367Z,99648
2018-01-02T23:21:07.147Z,99639
2018-01-02T23:23:36.352Z,99621
2018-01-02T23:26:05.601Z,99613
2018-01-02T23:28:35.597Z,99606
2018-01-02T23:31:05.791Z,99583
2018-01-02T23:33:35.222Z,99571
2018-01-02T23:36:05.247Z,99569
2018-01-02T23:38:34.382Z,99561
2018-01-02T23:41:03.683Z,99551
2018-01-02T23:43:33.677Z,99539
2018-01-02T23:46:02.891Z,99530
2018-01-02T23:48:32.086Z,99521
2018-01-02T23:51:03.123Z,99509
2018-01-02T23:53:33.046Z,99498
2018-01-02T23:56:03.017Z,99489
2018-01-02T23:58:33.634Z,99480
